sensor_id;sensor_type;location;lat;lon;timestamp;temperature;humidity
7894;DHT22;51343;51.396;6.656;2022-12-15T00:01:41;-7.50;99.90
7894;DHT22;51343;51.396;6.656;2022-12-15T00:04:34;-7.50;22.90
7894;DHT22;51343;51.396;6.656;2022-12-15T00:07:20;-7.50;99.90
7894;DHT22;51343;51.396;6.656;2022-12-15T00:10:05;-7.50;99.90
7894;DHT22;51343;51.396;6.656;2022-12-15T00:12:50;-7.50;1.00
7894;DHT22;51343;51.396;6.656;2022-12-15T00:15:36;-7.50;1.00
7894;DHT22;51343;51.396;6.656;2022-12-15T00:18:21;-7.60;1.00
7894;DHT22;51343;51.396;6.656;2022-12-15T00:21:07;-7.60;1.00
7894;DHT22;51343;51.396;6.656;2022-12-15T00:23:51;-7.60;1.00
7894;DHT22;51343;51.396;6.656;2022-12-15T00:26:36;-7.60;1.00
7894;DHT22;51343;51.396;6.656;2022-12-15T00:29:22;-7.50;1.00
7894;DHT22;51343;51.396;6.656;2022-12-15T00:34:57;-7.60;1.00
7894;DHT22;51343;51.396;6.656;2022-12-15T00:37:41;-7.60;1.00
7894;DHT22;51343;51.396;6.656;2022-12-15T00:40:25;-7.60;1.00
7894;DHT22;51343;51.396;6.656;2022-12-15T00:42:52;-7.60;72.20
7894;DHT22;51343;51.396;6.656;2022-12-15T00:45:19;-7.50;99.90
7894;DHT22;51343;51.396;6.656;2022-12-15T00:48:05;-7.40;99.90
7894;DHT22;51343;51.396;6.656;2022-12-15T00:50:32;-7.40;99.90
7894;DHT22;51343;51.396;6.656;2022-12-15T00:53:23;-7.40;99.90
7894;DHT22;51343;51.396;6.656;2022-12-15T00:56:18;-7.50;32.90
7894;DHT22;51343;51.396;6.656;2022-12-15T00:59:02;-7.50;1.00
7894;DHT22;51343;51.396;6.656;2022-12-15T01:01:46;-7.50;1.00
7894;DHT22;51343;51.396;6.656;2022-12-15T01:04:38;-7.50;99.90
7894;DHT22;51343;51.396;6.656;2022-12-15T01:07:27;-7.60;1.00
7894;DHT22;51343;51.396;6.656;2022-12-15T01:10:18;-7.60;1.00
7894;DHT22;51343;51.396;6.656;2022-12-15T01:15:49;-7.60;1.00
7894;DHT22;51343;51.396;6.656;2022-12-15T01:18:35;-7.60;1.00
7894;DHT22;51343;51.396;6.656;2022-12-15T01:21:21;-7.70;1.00
7894;DHT22;51343;51.396;6.656;2022-12-15T01:23:51;-7.70;1.00
7894;DHT22;51343;51.396;6.656;2022-12-15T01:26:19;-7.70;1.00
7894;DHT22;51343;51.396;6.656;2022-12-15T01:28:48;-7.70;1.00
7894;DHT22;51343;51.396;6.656;2022-12-15T01:31:15;-7.60;1.00
7894;DHT22;51343;51.396;6.656;2022-12-15T01:33:42;-7.60;1.00
7894;DHT22;51343;51.396;6.656;2022-12-15T01:36:11;-7.60;1.00
7894;DHT22;51343;51.396;6.656;2022-12-15T01:38:38;-7.60;1.00
7894;DHT22;51343;51.396;6.656;2022-12-15T01:41:08;-7.60;1.00
7894;DHT22;51343;51.396;6.656;2022-12-15T01:43:36;-7.50;1.00
7894;DHT22;51343;51.396;6.656;2022-12-15T01:46:04;-7.60;1.00
7894;DHT22;51343;51.396;6.656;2022-12-15T01:48:42;-7.50;1.00
7894;DHT22;51343;51.396;6.656;2022-12-15T01:51:12;-7.50;93.60
7894;DHT22;51343;51.396;6.656;2022-12-15T01:53:42;-7.50;99.90
7894;DHT22;51343;51.396;6.656;2022-12-15T01:56:13;-7.40;99.90
7894;DHT22;51343;51.396;6.656;2022-12-15T01:58:41;-7.50;98.30
7894;DHT22;51343;51.396;6.656;2022-12-15T02:03:38;-7.50;39.30
7894;DHT22;51343;51.396;6.656;2022-12-15T02:06:06;-7.50;1.00
7894;DHT22;51343;51.396;6.656;2022-12-15T02:08:33;-7.60;1.00
7894;DHT22;51343;51.396;6.656;2022-12-15T02:11:05;-7.60;1.00
7894;DHT22;51343;51.396;6.656;2022-12-15T02:13:41;-7.60;99.90
7894;DHT22;51343;51.396;6.656;2022-12-15T02:16:13;-7.50;99.90
7894;DHT22;51343;51.396;6.656;2022-12-15T02:18:45;-7.50;99.90
7894;DHT22;51343;51.396;6.656;2022-12-15T02:21:16;-7.50;99.90
7894;DHT22;51343;51.396;6.656;2022-12-15T02:24:00;-7.50;99.90
7894;DHT22;51343;51.396;6.656;2022-12-15T02:29:25;-7.50;99.90
7894;DHT22;51343;51.396;6.656;2022-12-15T02:31:59;-7.40;1.00
7894;DHT22;51343;51.396;6.656;2022-12-15T02:34:30;-7.40;1.00
7894;DHT22;51343;51.396;6.656;2022-12-15T02:37:00;-7.40;1.00
7894;DHT22;51343;51.396;6.656;2022-12-15T02:39:29;-7.40;99.90
7894;DHT22;51343;51.396;6.656;2022-12-15T02:41:56;-7.40;99.90
7894;DHT22;51343;51.396;6.656;2022-12-15T02:44:23;-7.30;99.90
7894;DHT22;51343;51.396;6.656;2022-12-15T02:47:01;-7.40;99.90
7894;DHT22;51343;51.396;6.656;2022-12-15T02:49:33;-7.40;99.90
7894;DHT22;51343;51.396;6.656;2022-12-15T02:52:06;-7.30;99.90
7894;DHT22;51343;51.396;6.656;2022-12-15T02:54:41;-7.30;99.90
7894;DHT22;51343;51.396;6.656;2022-12-15T02:57:17;-7.30;99.90
7894;DHT22;51343;51.396;6.656;2022-12-15T02:59:47;-7.30;99.90
7894;DHT22;51343;51.396;6.656;2022-12-15T03:02:25;-7.30;99.90
7894;DHT22;51343;51.396;6.656;2022-12-15T03:04:53;-7.30;99.90
7894;DHT22;51343;51.396;6.656;2022-12-15T03:07:21;-7.30;99.90
7894;DHT22;51343;51.396;6.656;2022-12-15T03:09:48;-7.40;1.00
7894;DHT22;51343;51.396;6.656;2022-12-15T03:12:15;-7.30;1.00
7894;DHT22;51343;51.396;6.656;2022-12-15T03:14:41;-7.30;99.90
7894;DHT22;51343;51.396;6.656;2022-12-15T03:17:08;-7.30;1.00
7894;DHT22;51343;51.396;6.656;2022-12-15T03:19:36;-7.20;1.00
7894;DHT22;51343;51.396;6.656;2022-12-15T03:22:03;-7.20;1.00
7894;DHT22;51343;51.396;6.656;2022-12-15T03:24:29;-7.20;1.00
7894;DHT22;51343;51.396;6.656;2022-12-15T03:26:56;-7.20;1.00
7894;DHT22;51343;51.396;6.656;2022-12-15T03:29:23;-7.20;1.00
7894;DHT22;51343;51.396;6.656;2022-12-15T03:31:49;-7.20;1.00
7894;DHT22;51343;51.396;6.656;2022-12-15T03:34:16;-7.20;1.00
7894;DHT22;51343;51.396;6.656;2022-12-15T03:36:44;-7.20;1.00
7894;DHT22;51343;51.396;6.656;2022-12-15T03:39:11;-7.20;1.00
7894;DHT22;51343;51.396;6.656;2022-12-15T03:41:38;-7.20;1.00
7894;DHT22;51343;51.396;6.656;2022-12-15T03:44:12;-7.10;1.00
7894;DHT22;51343;51.396;6.656;2022-12-15T03:46:38;-7.10;1.00
7894;DHT22;51343;51.396;6.656;2022-12-15T03:49:05;-7.10;1.00
7894;DHT22;51343;51.396;6.656;2022-12-15T03:51:39;-7.00;1.00
7894;DHT22;51343;51.396;6.656;2022-12-15T03:54:07;-7.00;1.00
7894;DHT22;51343;51.396;6.656;2022-12-15T03:56:33;-7.00;1.00
7894;DHT22;51343;51.396;6.656;2022-12-15T03:59:00;-7.00;1.00
7894;DHT22;51343;51.396;6.656;2022-12-15T04:01:28;-7.00;1.00
7894;DHT22;51343;51.396;6.656;2022-12-15T04:03:55;-7.00;1.00
7894;DHT22;51343;51.396;6.656;2022-12-15T04:06:22;-6.90;1.00
7894;DHT22;51343;51.396;6.656;2022-12-15T04:08:55;-6.90;1.00
7894;DHT22;51343;51.396;6.656;2022-12-15T04:11:23;-6.90;1.00
7894;DHT22;51343;51.396;6.656;2022-12-15T04:13:49;-6.90;1.00
7894;DHT22;51343;51.396;6.656;2022-12-15T04:16:16;-6.90;1.00
7894;DHT22;51343;51.396;6.656;2022-12-15T04:18:43;-6.90;1.00
7894;DHT22;51343;51.396;6.656;2022-12-15T04:21:09;-6.90;1.00
7894;DHT22;51343;51.396;6.656;2022-12-15T04:23:35;-6.70;1.00
7894;DHT22;51343;51.396;6.656;2022-12-15T04:26:02;-6.60;1.00
7894;DHT22;51343;51.396;6.656;2022-12-15T04:28:48;-6.50;28.80
7894;DHT22;51343;51.396;6.656;2022-12-15T04:31:38;-6.40;73.30
7894;DHT22;51343;51.396;6.656;2022-12-15T04:34:22;-6.40;99.90
7894;DHT22;51343;51.396;6.656;2022-12-15T04:37:09;-6.30;99.90
7894;DHT22;51343;51.396;6.656;2022-12-15T04:39:54;-6.40;99.90
7894;DHT22;51343;51.396;6.656;2022-12-15T04:42:39;-6.30;99.90
7894;DHT22;51343;51.396;6.656;2022-12-15T04:45:25;-6.30;99.90
7894;DHT22;51343;51.396;6.656;2022-12-15T04:48:10;-6.40;99.90
7894;DHT22;51343;51.396;6.656;2022-12-15T04:50:54;-6.40;99.90
7894;DHT22;51343;51.396;6.656;2022-12-15T04:53:38;-6.50;99.90
7894;DHT22;51343;51.396;6.656;2022-12-15T04:56:23;-6.50;99.90
7894;DHT22;51343;51.396;6.656;2022-12-15T04:59:09;-6.50;99.90
7894;DHT22;51343;51.396;6.656;2022-12-15T05:01:55;-6.50;99.90
7894;DHT22;51343;51.396;6.656;2022-12-15T05:04:38;-6.60;99.90
7894;DHT22;51343;51.396;6.656;2022-12-15T05:07:23;-6.60;99.90
7894;DHT22;51343;51.396;6.656;2022-12-15T05:10:07;-6.60;99.90
7894;DHT22;51343;51.396;6.656;2022-12-15T05:12:51;-6.60;99.90
7894;DHT22;51343;51.396;6.656;2022-12-15T05:15:35;-6.60;99.90
7894;DHT22;51343;51.396;6.656;2022-12-15T05:18:25;-6.60;99.90
7894;DHT22;51343;51.396;6.656;2022-12-15T05:21:09;-6.60;99.90
7894;DHT22;51343;51.396;6.656;2022-12-15T05:23:53;-6.60;99.90
7894;DHT22;51343;51.396;6.656;2022-12-15T05:26:37;-6.60;99.90
7894;DHT22;51343;51.396;6.656;2022-12-15T05:29:21;-6.70;99.90
7894;DHT22;51343;51.396;6.656;2022-12-15T05:32:06;-6.70;99.90
7894;DHT22;51343;51.396;6.656;2022-12-15T05:39:36;-6.50;99.90
7894;DHT22;51343;51.396;6.656;2022-12-15T05:42:04;-6.40;99.90
7894;DHT22;51343;51.396;6.656;2022-12-15T05:44:31;-6.40;99.90
7894;DHT22;51343;51.396;6.656;2022-12-15T05:46:58;-6.30;99.90
7894;DHT22;51343;51.396;6.656;2022-12-15T05:49:25;-6.10;99.90
7894;DHT22;51343;51.396;6.656;2022-12-15T05:51:53;-6.00;99.90
7894;DHT22;51343;51.396;6.656;2022-12-15T05:54:31;-6.00;99.90
7894;DHT22;51343;51.396;6.656;2022-12-15T05:56:59;-6.00;99.90
7894;DHT22;51343;51.396;6.656;2022-12-15T05:59:26;-6.10;99.90
7894;DHT22;51343;51.396;6.656;2022-12-15T06:01:52;-6.10;99.90
7894;DHT22;51343;51.396;6.656;2022-12-15T06:04:19;-6.10;99.90
7894;DHT22;51343;51.396;6.656;2022-12-15T06:06:46;-6.10;99.90
7894;DHT22;51343;51.396;6.656;2022-12-15T06:09:12;-6.00;99.90
7894;DHT22;51343;51.396;6.656;2022-12-15T06:11:39;-5.90;99.90
7894;DHT22;51343;51.396;6.656;2022-12-15T06:14:07;-5.90;99.90
7894;DHT22;51343;51.396;6.656;2022-12-15T06:16:36;-6.00;99.90
7894;DHT22;51343;51.396;6.656;2022-12-15T06:19:03;-6.10;99.90
7894;DHT22;51343;51.396;6.656;2022-12-15T06:21:32;-6.10;99.90
7894;DHT22;51343;51.396;6.656;2022-12-15T06:24:00;-6.10;99.90
7894;DHT22;51343;51.396;6.656;2022-12-15T06:26:28;-6.10;99.90
7894;DHT22;51343;51.396;6.656;2022-12-15T06:28:56;-6.20;99.90
7894;DHT22;51343;51.396;6.656;2022-12-15T06:31:24;-6.30;99.90
7894;DHT22;51343;51.396;6.656;2022-12-15T06:34:01;-6.40;99.90
7894;DHT22;51343;51.396;6.656;2022-12-15T06:36:35;-6.40;99.90
7894;DHT22;51343;51.396;6.656;2022-12-15T06:39:02;-6.50;99.90
7894;DHT22;51343;51.396;6.656;2022-12-15T06:41:29;-6.60;99.90
7894;DHT22;51343;51.396;6.656;2022-12-15T06:43:56;-6.60;99.90
7894;DHT22;51343;51.396;6.656;2022-12-15T06:46:25;-6.60;99.90
7894;DHT22;51343;51.396;6.656;2022-12-15T06:48:52;-6.60;99.90
7894;DHT22;51343;51.396;6.656;2022-12-15T06:51:21;-6.70;99.90
7894;DHT22;51343;51.396;6.656;2022-12-15T06:53:47;-6.70;99.90
7894;DHT22;51343;51.396;6.656;2022-12-15T06:56:26;-6.80;99.90
7894;DHT22;51343;51.396;6.656;2022-12-15T06:58:53;-6.80;99.90
7894;DHT22;51343;51.396;6.656;2022-12-15T07:01:21;-6.90;99.90
7894;DHT22;51343;51.396;6.656;2022-12-15T07:03:51;-6.90;99.90
7894;DHT22;51343;51.396;6.656;2022-12-15T07:06:18;-6.80;99.90
7894;DHT22;51343;51.396;6.656;2022-12-15T07:08:47;-6.90;99.90
7894;DHT22;51343;51.396;6.656;2022-12-15T07:11:17;-6.90;99.90
7894;DHT22;51343;51.396;6.656;2022-12-15T07:13:47;-6.80;99.90
7894;DHT22;51343;51.396;6.656;2022-12-15T07:16:20;-6.80;99.90
7894;DHT22;51343;51.396;6.656;2022-12-15T07:18:52;-6.80;99.90
7894;DHT22;51343;51.396;6.656;2022-12-15T07:21:20;-6.80;99.90
7894;DHT22;51343;51.396;6.656;2022-12-15T07:23:48;-6.70;99.90
7894;DHT22;51343;51.396;6.656;2022-12-15T07:29:19;-6.30;99.90
7894;DHT22;51343;51.396;6.656;2022-12-15T07:32:00;-6.10;99.90
7894;DHT22;51343;51.396;6.656;2022-12-15T07:34:33;-6.00;99.90
7894;DHT22;51343;51.396;6.656;2022-12-15T07:37:06;-6.00;99.90
7894;DHT22;51343;51.396;6.656;2022-12-15T07:39:34;-5.90;99.90
7894;DHT22;51343;51.396;6.656;2022-12-15T07:44:38;-5.90;99.90
7894;DHT22;51343;51.396;6.656;2022-12-15T07:47:07;-5.90;99.90
7894;DHT22;51343;51.396;6.656;2022-12-15T07:49:45;-5.80;99.90
7894;DHT22;51343;51.396;6.656;2022-12-15T07:52:20;-5.70;99.90
7894;DHT22;51343;51.396;6.656;2022-12-15T07:57:26;-5.40;99.90
7894;DHT22;51343;51.396;6.656;2022-12-15T07:59:55;-5.20;99.90
7894;DHT22;51343;51.396;6.656;2022-12-15T08:02:30;-5.20;99.90
7894;DHT22;51343;51.396;6.656;2022-12-15T08:05:05;-5.10;99.90
7894;DHT22;51343;51.396;6.656;2022-12-15T08:07:32;-5.10;99.90
7894;DHT22;51343;51.396;6.656;2022-12-15T08:13:05;-5.10;99.90
7894;DHT22;51343;51.396;6.656;2022-12-15T08:15:38;-5.00;99.90
7894;DHT22;51343;51.396;6.656;2022-12-15T08:18:12;-5.00;99.90
7894;DHT22;51343;51.396;6.656;2022-12-15T08:20:41;-4.90;99.90
7894;DHT22;51343;51.396;6.656;2022-12-15T08:23:10;-4.90;99.90
7894;DHT22;51343;51.396;6.656;2022-12-15T08:25:41;-4.90;99.90
7894;DHT22;51343;51.396;6.656;2022-12-15T08:28:08;-4.90;99.90
7894;DHT22;51343;51.396;6.656;2022-12-15T08:30:41;-4.90;99.90
7894;DHT22;51343;51.396;6.656;2022-12-15T08:33:15;-4.90;99.90
7894;DHT22;51343;51.396;6.656;2022-12-15T08:35:50;-4.90;99.90
7894;DHT22;51343;51.396;6.656;2022-12-15T08:41:13;-4.70;99.90
7894;DHT22;51343;51.396;6.656;2022-12-15T08:43:42;-4.80;99.90
7894;DHT22;51343;51.396;6.656;2022-12-15T08:46:11;-4.80;99.90
7894;DHT22;51343;51.396;6.656;2022-12-15T08:48:50;-4.70;99.90
7894;DHT22;51343;51.396;6.656;2022-12-15T08:51:22;-4.60;99.90
7894;DHT22;51343;51.396;6.656;2022-12-15T08:54:01;-4.60;99.90
7894;DHT22;51343;51.396;6.656;2022-12-15T08:59:02;-4.50;99.90
7894;DHT22;51343;51.396;6.656;2022-12-15T09:01:31;-4.40;99.90
7894;DHT22;51343;51.396;6.656;2022-12-15T09:04:08;-4.50;99.90
7894;DHT22;51343;51.396;6.656;2022-12-15T09:06:53;-4.40;99.90
7894;DHT22;51343;51.396;6.656;2022-12-15T09:09:30;-4.40;99.90
7894;DHT22;51343;51.396;6.656;2022-12-15T09:11:58;-4.30;99.90
7894;DHT22;51343;51.396;6.656;2022-12-15T09:14:27;-4.20;99.90
7894;DHT22;51343;51.396;6.656;2022-12-15T09:25:23;-4.20;99.90
7894;DHT22;51343;51.396;6.656;2022-12-15T09:27:59;-4.10;99.90
7894;DHT22;51343;51.396;6.656;2022-12-15T09:30:27;-4.10;99.90
7894;DHT22;51343;51.396;6.656;2022-12-15T09:32:54;-4.10;99.90
7894;DHT22;51343;51.396;6.656;2022-12-15T09:35:22;-4.10;99.90
7894;DHT22;51343;51.396;6.656;2022-12-15T09:37:59;-4.10;99.90
7894;DHT22;51343;51.396;6.656;2022-12-15T09:40:28;-4.10;99.90
7894;DHT22;51343;51.396;6.656;2022-12-15T09:42:56;-4.10;99.90
7894;DHT22;51343;51.396;6.656;2022-12-15T09:45:29;-4.10;99.90
7894;DHT22;51343;51.396;6.656;2022-12-15T09:47:59;-4.10;99.90
7894;DHT22;51343;51.396;6.656;2022-12-15T09:50:32;-4.10;99.90
7894;DHT22;51343;51.396;6.656;2022-12-15T09:52:59;-4.00;99.90
7894;DHT22;51343;51.396;6.656;2022-12-15T09:55:29;-4.00;99.90
7894;DHT22;51343;51.396;6.656;2022-12-15T09:58:05;-4.00;99.90
7894;DHT22;51343;51.396;6.656;2022-12-15T10:00:40;-4.00;99.90
7894;DHT22;51343;51.396;6.656;2022-12-15T10:03:26;-4.00;99.90
7894;DHT22;51343;51.396;6.656;2022-12-15T10:08:45;-3.90;99.90
7894;DHT22;51343;51.396;6.656;2022-12-15T10:11:17;-3.90;99.90
7894;DHT22;51343;51.396;6.656;2022-12-15T10:13:53;-3.80;99.90
7894;DHT22;51343;51.396;6.656;2022-12-15T10:16:31;-3.80;99.90
7894;DHT22;51343;51.396;6.656;2022-12-15T10:19:07;-3.80;99.90
7894;DHT22;51343;51.396;6.656;2022-12-15T10:21:36;-3.80;99.90
7894;DHT22;51343;51.396;6.656;2022-12-15T10:24:15;-3.80;99.90
7894;DHT22;51343;51.396;6.656;2022-12-15T10:26:54;-3.70;99.90
7894;DHT22;51343;51.396;6.656;2022-12-15T10:32:03;-3.50;99.90
7894;DHT22;51343;51.396;6.656;2022-12-15T10:34:33;-3.50;99.90
7894;DHT22;51343;51.396;6.656;2022-12-15T10:37:08;-3.40;99.90
7894;DHT22;51343;51.396;6.656;2022-12-15T10:39:40;-3.40;99.90
7894;DHT22;51343;51.396;6.656;2022-12-15T10:44:47;-3.30;99.90
7894;DHT22;51343;51.396;6.656;2022-12-15T10:47:30;-3.30;99.90
7894;DHT22;51343;51.396;6.656;2022-12-15T10:50:15;-3.30;99.90
7894;DHT22;51343;51.396;6.656;2022-12-15T10:52:55;-3.20;99.90
7894;DHT22;51343;51.396;6.656;2022-12-15T10:55:34;-3.10;99.90
7894;DHT22;51343;51.396;6.656;2022-12-15T10:58:13;-3.00;99.90
7894;DHT22;51343;51.396;6.656;2022-12-15T11:00:42;-3.00;99.90
7894;DHT22;51343;51.396;6.656;2022-12-15T11:03:19;-2.90;99.90
7894;DHT22;51343;51.396;6.656;2022-12-15T11:05:49;-2.80;99.90
7894;DHT22;51343;51.396;6.656;2022-12-15T11:08:23;-2.70;99.90
7894;DHT22;51343;51.396;6.656;2022-12-15T11:10:50;-2.60;99.90
7894;DHT22;51343;51.396;6.656;2022-12-15T11:13:40;-2.50;99.90
7894;DHT22;51343;51.396;6.656;2022-12-15T11:16:13;-2.50;99.90
7894;DHT22;51343;51.396;6.656;2022-12-15T11:18:54;-2.50;99.90
7894;DHT22;51343;51.396;6.656;2022-12-15T11:21:31;-2.50;99.90
7894;DHT22;51343;51.396;6.656;2022-12-15T11:24:03;-2.60;99.90
7894;DHT22;51343;51.396;6.656;2022-12-15T11:26:43;-2.50;99.90
7894;DHT22;51343;51.396;6.656;2022-12-15T11:29:17;-2.60;99.90
7894;DHT22;51343;51.396;6.656;2022-12-15T11:31:47;-2.60;99.90
7894;DHT22;51343;51.396;6.656;2022-12-15T11:36:53;-2.60;99.90
7894;DHT22;51343;51.396;6.656;2022-12-15T11:39:26;-2.60;99.90
7894;DHT22;51343;51.396;6.656;2022-12-15T11:41:59;-2.60;99.90
7894;DHT22;51343;51.396;6.656;2022-12-15T11:44:32;-2.60;99.90
7894;DHT22;51343;51.396;6.656;2022-12-15T11:47:08;-2.60;99.90
7894;DHT22;51343;51.396;6.656;2022-12-15T11:55:18;-2.60;99.90
7894;DHT22;51343;51.396;6.656;2022-12-15T11:57:56;-2.60;99.90
7894;DHT22;51343;51.396;6.656;2022-12-15T12:00:31;-2.60;99.90
7894;DHT22;51343;51.396;6.656;2022-12-15T12:03:09;-2.60;99.90
7894;DHT22;51343;51.396;6.656;2022-12-15T12:05:51;-2.60;99.90
7894;DHT22;51343;51.396;6.656;2022-12-15T12:08:29;-2.50;99.90
7894;DHT22;51343;51.396;6.656;2022-12-15T12:11:02;-2.50;99.90
7894;DHT22;51343;51.396;6.656;2022-12-15T12:13:33;-2.40;99.90
7894;DHT22;51343;51.396;6.656;2022-12-15T12:16:11;-2.40;99.90
7894;DHT22;51343;51.396;6.656;2022-12-15T12:18:51;-2.40;99.90
7894;DHT22;51343;51.396;6.656;2022-12-15T12:21:36;-2.40;99.90
7894;DHT22;51343;51.396;6.656;2022-12-15T12:24:09;-2.40;99.90
7894;DHT22;51343;51.396;6.656;2022-12-15T12:26:39;-2.40;99.90
7894;DHT22;51343;51.396;6.656;2022-12-15T12:29:10;-2.40;99.90
7894;DHT22;51343;51.396;6.656;2022-12-15T12:31:48;-2.40;99.90
7894;DHT22;51343;51.396;6.656;2022-12-15T12:34:18;-2.30;99.90
7894;DHT22;51343;51.396;6.656;2022-12-15T12:36:50;-2.30;99.90
7894;DHT22;51343;51.396;6.656;2022-12-15T12:39:20;-2.30;99.90
7894;DHT22;51343;51.396;6.656;2022-12-15T12:41:55;-2.40;99.90
7894;DHT22;51343;51.396;6.656;2022-12-15T12:44:28;-2.50;99.90
7894;DHT22;51343;51.396;6.656;2022-12-15T12:46:55;-2.60;99.90
7894;DHT22;51343;51.396;6.656;2022-12-15T12:49:25;-2.60;99.90
7894;DHT22;51343;51.396;6.656;2022-12-15T12:51:54;-2.60;99.90
7894;DHT22;51343;51.396;6.656;2022-12-15T12:54:39;-2.60;99.90
7894;DHT22;51343;51.396;6.656;2022-12-15T12:57:26;-2.60;99.90
7894;DHT22;51343;51.396;6.656;2022-12-15T13:00:13;-2.70;99.90
7894;DHT22;51343;51.396;6.656;2022-12-15T13:05:31;-2.50;99.90
7894;DHT22;51343;51.396;6.656;2022-12-15T13:10:46;-2.40;99.90
7894;DHT22;51343;51.396;6.656;2022-12-15T13:19:05;-2.30;99.90
7894;DHT22;51343;51.396;6.656;2022-12-15T13:21:50;-2.30;99.90
7894;DHT22;51343;51.396;6.656;2022-12-15T13:24:29;-2.20;99.90
7894;DHT22;51343;51.396;6.656;2022-12-15T13:27:10;-2.20;99.90
7894;DHT22;51343;51.396;6.656;2022-12-15T13:29:58;-2.20;99.90
7894;DHT22;51343;51.396;6.656;2022-12-15T13:32:37;-2.20;99.90
7894;DHT22;51343;51.396;6.656;2022-12-15T13:35:15;-2.20;99.90
7894;DHT22;51343;51.396;6.656;2022-12-15T13:37:45;-2.20;99.90
7894;DHT22;51343;51.396;6.656;2022-12-15T13:43:07;-2.40;99.90
7894;DHT22;51343;51.396;6.656;2022-12-15T13:45:49;-2.40;99.90
7894;DHT22;51343;51.396;6.656;2022-12-15T13:51:02;-2.60;99.90
7894;DHT22;51343;51.396;6.656;2022-12-15T13:53:36;-2.60;99.90
7894;DHT22;51343;51.396;6.656;2022-12-15T13:56:20;-2.60;99.90
7894;DHT22;51343;51.396;6.656;2022-12-15T13:58:56;-2.70;99.90
7894;DHT22;51343;51.396;6.656;2022-12-15T14:01:25;-2.70;99.90
7894;DHT22;51343;51.396;6.656;2022-12-15T14:04:03;-2.70;99.90
7894;DHT22;51343;51.396;6.656;2022-12-15T14:06:33;-2.70;99.90
7894;DHT22;51343;51.396;6.656;2022-12-15T14:09:10;-2.80;99.90
7894;DHT22;51343;51.396;6.656;2022-12-15T14:11:39;-2.80;99.90
7894;DHT22;51343;51.396;6.656;2022-12-15T14:14:11;-2.80;99.90
7894;DHT22;51343;51.396;6.656;2022-12-15T14:16:42;-2.70;99.90
7894;DHT22;51343;51.396;6.656;2022-12-15T14:19:11;-2.80;99.90
7894;DHT22;51343;51.396;6.656;2022-12-15T14:21:38;-2.80;99.90
7894;DHT22;51343;51.396;6.656;2022-12-15T14:26:51;-2.80;99.90
7894;DHT22;51343;51.396;6.656;2022-12-15T14:31:50;-2.90;99.90
7894;DHT22;51343;51.396;6.656;2022-12-15T14:34:22;-2.90;99.90
7894;DHT22;51343;51.396;6.656;2022-12-15T14:36:56;-3.00;99.90
7894;DHT22;51343;51.396;6.656;2022-12-15T14:39:25;-3.00;99.90
7894;DHT22;51343;51.396;6.656;2022-12-15T14:41:56;-3.10;99.90
7894;DHT22;51343;51.396;6.656;2022-12-15T14:44:26;-3.10;99.90
7894;DHT22;51343;51.396;6.656;2022-12-15T14:46:55;-3.20;99.90
7894;DHT22;51343;51.396;6.656;2022-12-15T14:49:24;-3.30;99.90
7894;DHT22;51343;51.396;6.656;2022-12-15T14:51:53;-3.30;99.90
7894;DHT22;51343;51.396;6.656;2022-12-15T14:54:32;-3.40;99.90
7894;DHT22;51343;51.396;6.656;2022-12-15T14:57:02;-3.50;99.90
7894;DHT22;51343;51.396;6.656;2022-12-15T14:59:32;-3.50;99.90
7894;DHT22;51343;51.396;6.656;2022-12-15T15:02:08;-3.60;99.90
7894;DHT22;51343;51.396;6.656;2022-12-15T15:04:37;-3.70;99.90
7894;DHT22;51343;51.396;6.656;2022-12-15T15:07:04;-3.70;99.90
7894;DHT22;51343;51.396;6.656;2022-12-15T15:09:41;-3.80;99.90
7894;DHT22;51343;51.396;6.656;2022-12-15T15:12:13;-3.90;99.90
7894;DHT22;51343;51.396;6.656;2022-12-15T15:14:51;-3.90;99.90
7894;DHT22;51343;51.396;6.656;2022-12-15T15:17:20;-4.00;99.90
7894;DHT22;51343;51.396;6.656;2022-12-15T15:19:49;-4.10;99.90
7894;DHT22;51343;51.396;6.656;2022-12-15T15:22:23;-4.10;99.90
7894;DHT22;51343;51.396;6.656;2022-12-15T15:24:51;-4.20;99.90
7894;DHT22;51343;51.396;6.656;2022-12-15T15:27:30;-4.20;99.90
7894;DHT22;51343;51.396;6.656;2022-12-15T15:32:52;-4.40;99.90
7894;DHT22;51343;51.396;6.656;2022-12-15T15:35:20;-4.40;99.90
7894;DHT22;51343;51.396;6.656;2022-12-15T15:37:49;-4.50;99.90
7894;DHT22;51343;51.396;6.656;2022-12-15T15:40:17;-4.50;99.90
7894;DHT22;51343;51.396;6.656;2022-12-15T15:42:47;-4.60;99.90
7894;DHT22;51343;51.396;6.656;2022-12-15T15:45:14;-4.60;99.90
7894;DHT22;51343;51.396;6.656;2022-12-15T15:47:44;-4.70;99.90
7894;DHT22;51343;51.396;6.656;2022-12-15T15:50:13;-4.70;99.90
7894;DHT22;51343;51.396;6.656;2022-12-15T15:52:42;-4.80;99.90
7894;DHT22;51343;51.396;6.656;2022-12-15T15:55:13;-4.80;99.90
7894;DHT22;51343;51.396;6.656;2022-12-15T15:57:43;-4.90;99.90
7894;DHT22;51343;51.396;6.656;2022-12-15T16:00:19;-4.90;99.90
7894;DHT22;51343;51.396;6.656;2022-12-15T16:02:46;-5.00;99.90
7894;DHT22;51343;51.396;6.656;2022-12-15T16:05:15;-5.00;99.90
7894;DHT22;51343;51.396;6.656;2022-12-15T16:07:42;-5.00;99.90
7894;DHT22;51343;51.396;6.656;2022-12-15T16:10:11;-5.00;99.90
7894;DHT22;51343;51.396;6.656;2022-12-15T16:12:39;-5.00;99.90
7894;DHT22;51343;51.396;6.656;2022-12-15T16:15:27;-5.00;99.90
7894;DHT22;51343;51.396;6.656;2022-12-15T16:17:55;-4.90;99.90
7894;DHT22;51343;51.396;6.656;2022-12-15T16:20:25;-4.90;99.90
7894;DHT22;51343;51.396;6.656;2022-12-15T16:23:09;-5.00;99.90
7894;DHT22;51343;51.396;6.656;2022-12-15T16:25:36;-5.00;99.90
7894;DHT22;51343;51.396;6.656;2022-12-15T16:28:04;-5.10;99.90
7894;DHT22;51343;51.396;6.656;2022-12-15T16:30:43;-5.10;99.90
7894;DHT22;51343;51.396;6.656;2022-12-15T16:33:12;-5.20;99.90
7894;DHT22;51343;51.396;6.656;2022-12-15T16:35:44;-5.20;99.90
7894;DHT22;51343;51.396;6.656;2022-12-15T16:38:16;-5.30;99.90
7894;DHT22;51343;51.396;6.656;2022-12-15T16:40:43;-5.20;99.90
7894;DHT22;51343;51.396;6.656;2022-12-15T16:45:41;-5.10;99.90
7894;DHT22;51343;51.396;6.656;2022-12-15T16:48:11;-5.10;99.90
7894;DHT22;51343;51.396;6.656;2022-12-15T16:50:38;-5.10;99.90
7894;DHT22;51343;51.396;6.656;2022-12-15T16:53:05;-5.10;99.90
7894;DHT22;51343;51.396;6.656;2022-12-15T16:55:34;-5.10;99.90
7894;DHT22;51343;51.396;6.656;2022-12-15T16:58:02;-5.10;99.90
7894;DHT22;51343;51.396;6.656;2022-12-15T17:00:33;-5.10;99.90
7894;DHT22;51343;51.396;6.656;2022-12-15T17:03:02;-5.20;99.90
7894;DHT22;51343;51.396;6.656;2022-12-15T17:05:32;-5.20;99.90
7894;DHT22;51343;51.396;6.656;2022-12-15T17:08:12;-5.20;99.90
7894;DHT22;51343;51.396;6.656;2022-12-15T17:13:31;-5.30;99.90
7894;DHT22;51343;51.396;6.656;2022-12-15T17:18:30;-5.30;99.90
7894;DHT22;51343;51.396;6.656;2022-12-15T17:21:00;-5.40;99.90
7894;DHT22;51343;51.396;6.656;2022-12-15T17:23:28;-5.40;99.90
7894;DHT22;51343;51.396;6.656;2022-12-15T17:26:02;-5.50;99.90
7894;DHT22;51343;51.396;6.656;2022-12-15T17:28:30;-5.50;99.90
7894;DHT22;51343;51.396;6.656;2022-12-15T17:30:59;-5.50;99.90
7894;DHT22;51343;51.396;6.656;2022-12-15T17:36:11;-5.60;99.90
7894;DHT22;51343;51.396;6.656;2022-12-15T17:41:10;-5.60;99.90
7894;DHT22;51343;51.396;6.656;2022-12-15T17:43:42;-5.60;99.90
7894;DHT22;51343;51.396;6.656;2022-12-15T17:46:09;-5.60;99.90
7894;DHT22;51343;51.396;6.656;2022-12-15T17:48:38;-5.60;99.90
7894;DHT22;51343;51.396;6.656;2022-12-15T17:51:11;-5.60;99.90
7894;DHT22;51343;51.396;6.656;2022-12-15T17:53:41;-5.60;99.90
7894;DHT22;51343;51.396;6.656;2022-12-15T17:56:09;-5.60;99.90
7894;DHT22;51343;51.396;6.656;2022-12-15T17:58:38;-5.50;99.90
7894;DHT22;51343;51.396;6.656;2022-12-15T18:01:11;-5.40;99.90
7894;DHT22;51343;51.396;6.656;2022-12-15T18:06:11;-5.20;99.90